createdAt,value
2022-07-31T00:02:23.675Z,99163.91
2022-07-31T00:05:27.573Z,99164.09
2022-07-31T00:08:30.996Z,99167.63
2022-07-31T00:11:35.771Z,99175.97
2022-07-31T00:14:39.288Z,99182.50
2022-07-31T00:17:44.446Z,99180.09
2022-07-31T00:20:48.941Z,99184.13
2022-07-31T00:23:52.341Z,99180.47
2022-07-31T00:26:57.137Z,99189.25
2022-07-31T00:30:00.455Z,99193.31
2022-07-31T00:33:03.735Z,99204.84
2022-07-31T00:36:07.290Z,99196.00
2022-07-31T00:39:11.023Z,99186.59
2022-07-31T00:42:20.364Z,99196.50
2022-07-31T00:45:29.118Z,99189.72
2022-07-31T00:48:35.698Z,99190.53
2022-07-31T00:51:41.468Z,99191.53
2022-07-31T00:54:44.802Z,99194.84
2022-07-31T00:57:49.542Z,99185.69
2022-07-31T01:00:53.142Z,99190.25
2022-07-31T01:03:56.688Z,99198.06
2022-07-31T01:07:01.450Z,99193.44
2022-07-31T01:10:10.820Z,99198.66
2022-07-31T01:13:24.376Z,99206.97
2022-07-31T01:16:31.961Z,99219.56
2022-07-31T01:19:42.809Z,99216.84
2022-07-31T01:23:25.369Z,99219.34
2022-07-31T01:26:57.283Z,99210.38
2022-07-31T01:30:04.278Z,99214.38
2022-07-31T01:33:12.493Z,99209.38
2022-07-31T01:36:21.748Z,99210.63
2022-07-31T01:39:26.324Z,99203.19
2022-07-31T01:42:40.699Z,99206.78
2022-07-31T01:45:48.171Z,99202.50
2022-07-31T01:48:53.989Z,99194.09
2022-07-31T01:52:04.265Z,99186.28
2022-07-31T01:55:12.979Z,99188.03
2022-07-31T01:58:20.365Z,99183.59
2022-07-31T02:01:27.533Z,99177.88
2022-07-31T02:04:33.313Z,99194.56
2022-07-31T02:07:39.169Z,99194.59
2022-07-31T02:10:45.791Z,99199.28
2022-07-31T02:13:50.430Z,99190.72
2022-07-31T02:16:56.344Z,99191.59
2022-07-31T02:20:15.430Z,99193.88
2022-07-31T02:23:19.451Z,99192.72
2022-07-31T02:26:24.036Z,99193.06
2022-07-31T02:29:32.652Z,99192.97
2022-07-31T02:32:39.733Z,99186.41
2022-07-31T02:35:45.707Z,99189.69
2022-07-31T02:38:53.038Z,99200.00
2022-07-31T02:41:58.174Z,99190.47
2022-07-31T02:45:02.318Z,99192.09
2022-07-31T02:48:07.999Z,99185.25
2022-07-31T02:51:12.479Z,99187.94
2022-07-31T02:54:18.890Z,99191.47
2022-07-31T02:57:22.464Z,99196.25
2022-07-31T03:00:27.201Z,99194.94
2022-07-31T03:03:33.320Z,99193.38
2022-07-31T03:06:36.914Z,99201.31
2022-07-31T03:09:40.239Z,99194.59
2022-07-31T03:13:08.016Z,99196.28
2022-07-31T03:16:12.705Z,99204.53
2022-07-31T03:19:17.847Z,99198.97
2022-07-31T03:22:21.312Z,99204.66
2022-07-31T03:25:25.295Z,99193.97
2022-07-31T03:28:29.439Z,99199.97
2022-07-31T03:31:32.789Z,99201.16
2022-07-31T03:34:37.555Z,99192.88
2022-07-31T03:37:40.992Z,99191.22
2022-07-31T03:40:44.389Z,99205.44
2022-07-31T03:43:49.333Z,99199.94
2022-07-31T03:46:55.804Z,99209.53
2022-07-31T03:50:03.040Z,99206.13
2022-07-31T03:53:08.548Z,99209.81
2022-07-31T03:56:20.049Z,99211.28
2022-07-31T03:59:23.849Z,99210.13
2022-07-31T04:02:27.842Z,99213.94
2022-07-31T04:05:47.593Z,99215.47
2022-07-31T04:08:51.166Z,99211.09
2022-07-31T04:11:54.626Z,99216.22
2022-07-31T04:14:58.060Z,99208.94
2022-07-31T04:18:01.315Z,99208.97
2022-07-31T04:21:12.622Z,99204.09
2022-07-31T04:24:18.318Z,99204.09
2022-07-31T04:27:48.339Z,99202.72
2022-07-31T04:30:53.455Z,99204.06
2022-07-31T04:33:57.242Z,99200.59
2022-07-31T04:37:02.262Z,99195.25
2022-07-31T04:40:06.258Z,99194.31
2022-07-31T04:43:12.865Z,99203.50
2022-07-31T04:46:17.774Z,99207.63
2022-07-31T04:49:21.848Z,99211.41
2022-07-31T04:52:26.682Z,99209.91
2022-07-31T04:55:32.997Z,99208.09
2022-07-31T04:58:36.543Z,99212.34
2022-07-31T05:01:41.336Z,99211.44
2022-07-31T05:04:44.873Z,99211.22
2022-07-31T05:07:57.643Z,99221.19
2022-07-31T05:11:23.617Z,99227.13
2022-07-31T05:14:27.253Z,99222.88
2022-07-31T05:17:31.015Z,99221.00
2022-07-31T05:21:06.315Z,99226.13
2022-07-31T05:24:33.573Z,99217.25
2022-07-31T05:27:57.781Z,99211.81
2022-07-31T05:31:02.949Z,99210.53
2022-07-31T05:34:07.295Z,99204.63
2022-07-31T05:37:10.642Z,99212.66
2022-07-31T05:40:18.093Z,99208.41
2022-07-31T05:43:40.330Z,99209.91
2022-07-31T05:49:54.629Z,99202.75
2022-07-31T05:52:58.413Z,99199.25
2022-07-31T05:56:21.544Z,99198.94
2022-07-31T05:59:27.657Z,99200.06
2022-07-31T06:02:31.010Z,99197.88
2022-07-31T06:05:44.784Z,99201.31
2022-07-31T06:08:48.121Z,99197.63
2022-07-31T06:11:52.845Z,99205.41
2022-07-31T06:14:56.299Z,99196.25
2022-07-31T06:18:09.472Z,99204.63
2022-07-31T06:24:15.941Z,99197.09
2022-07-31T06:27:33.381Z,99189.53
2022-07-31T06:30:38.557Z,99199.81
2022-07-31T06:33:43.531Z,99203.56
2022-07-31T06:36:53.002Z,99203.19
2022-07-31T06:39:58.455Z,99200.72
2022-07-31T06:43:25.063Z,99197.28
2022-07-31T06:46:49.319Z,99202.56
2022-07-31T06:50:28.162Z,99199.91
2022-07-31T06:53:47.122Z,99205.31
2022-07-31T06:56:50.444Z,99202.75
2022-07-31T06:59:55.224Z,99206.25
2022-07-31T07:02:58.620Z,99209.25
2022-07-31T07:06:03.571Z,99205.75
2022-07-31T07:09:08.082Z,99200.25
2022-07-31T07:12:16.604Z,99201.97
2022-07-31T07:15:24.044Z,99204.88
2022-07-31T07:18:27.429Z,99200.06
2022-07-31T07:21:33.454Z,99209.06
2022-07-31T07:24:36.789Z,99204.00
2022-07-31T07:27:45.715Z,99202.97
2022-07-31T07:30:50.838Z,99205.19
2022-07-31T07:33:56.270Z,99194.78
2022-07-31T07:37:00.534Z,99197.81
2022-07-31T07:40:08.389Z,99185.25
2022-07-31T07:43:11.864Z,99196.34
2022-07-31T07:46:16.946Z,99198.31
2022-07-31T07:49:26.674Z,99196.28
2022-07-31T07:52:52.852Z,99193.06
2022-07-31T07:56:19.612Z,99194.59
2022-07-31T07:59:55.669Z,99191.38
2022-07-31T08:03:48.262Z,99189.88
2022-07-31T08:06:42.840Z,99188.84
2022-07-31T08:09:46.380Z,99177.28
2022-07-31T08:12:50.267Z,99185.56
2022-07-31T08:16:02.861Z,99183.41
2022-07-31T08:19:11.339Z,99183.06
2022-07-31T08:22:14.988Z,99180.84
2022-07-31T08:25:18.400Z,99184.88
2022-07-31T08:28:24.138Z,99178.06
2022-07-31T08:31:28.233Z,99175.56
2022-07-31T08:35:02.366Z,99175.41
2022-07-31T08:38:05.937Z,99178.97
2022-07-31T08:41:16.275Z,99171.50
2022-07-31T08:44:26.429Z,99174.97
2022-07-31T08:47:37.275Z,99175.91
2022-07-31T08:50:53.477Z,99174.09
2022-07-31T08:54:21.369Z,99165.50
2022-07-31T08:57:26.885Z,99166.09
2022-07-31T09:00:30.346Z,99158.66
2022-07-31T09:03:35.352Z,99157.16
2022-07-31T09:06:42.599Z,99155.38
2022-07-31T09:09:51.433Z,99153.25
2022-07-31T09:12:57.887Z,99152.31
2022-07-31T09:16:06.224Z,99156.09
2022-07-31T09:19:54.034Z,99155.59
2022-07-31T09:22:35.454Z,99147.28
2022-07-31T09:25:41.913Z,99147.41
2022-07-31T09:28:48.994Z,99139.28
2022-07-31T09:31:52.397Z,99135.06
2022-07-31T09:35:15.736Z,99132.81
2022-07-31T09:38:21.236Z,99129.03
2022-07-31T09:42:01.244Z,99130.09
2022-07-31T09:45:26.183Z,99120.59
2022-07-31T09:48:31.401Z,99113.59
2022-07-31T09:51:40.736Z,99116.19
2022-07-31T09:54:46.617Z,99116.91
2022-07-31T09:58:03.997Z,99106.00
2022-07-31T10:01:14.444Z,99096.03
2022-07-31T10:04:19.415Z,99101.38
2022-07-31T10:07:32.693Z,99099.53
2022-07-31T10:10:54.158Z,99087.16
2022-07-31T10:14:10.651Z,99084.81
2022-07-31T10:17:21.460Z,99078.09
2022-07-31T10:20:55.990Z,99074.38
2022-07-31T10:24:09.260Z,99074.47
2022-07-31T10:27:16.801Z,99078.44
2022-07-31T10:30:22.784Z,99081.41
2022-07-31T10:33:47.224Z,99075.75
2022-07-31T10:37:14.785Z,99066.31
2022-07-31T10:40:38.009Z,99072.53
2022-07-31T10:43:49.284Z,99073.00
2022-07-31T10:47:01.357Z,99066.81
2022-07-31T10:50:22.913Z,99060.06
2022-07-31T10:53:55.217Z,99059.41
2022-07-31T10:57:23.768Z,99055.63
2022-07-31T11:00:47.300Z,99048.84
2022-07-31T11:04:10.957Z,99055.63
2022-07-31T11:07:44.486Z,99044.13
2022-07-31T11:11:03.488Z,99042.06
2022-07-31T11:14:35.046Z,99041.06
2022-07-31T11:18:20.913Z,99044.59
2022-07-31T11:21:40.944Z,99046.88
2022-07-31T11:24:54.223Z,99038.16
2022-07-31T11:27:59.052Z,99031.34
2022-07-31T11:31:03.947Z,99030.88
2022-07-31T11:34:08.752Z,99030.06
2022-07-31T11:37:17.469Z,99032.63
2022-07-31T11:40:22.492Z,99023.94
2022-07-31T11:43:31.930Z,99019.78
2022-07-31T11:46:38.080Z,99023.16
2022-07-31T11:49:49.015Z,99017.75
2022-07-31T11:53:03.889Z,99009.81
2022-07-31T11:56:07.347Z,99007.56
2022-07-31T11:59:45.963Z,99012.78
2022-07-31T12:02:34.118Z,99008.81
2022-07-31T12:05:47.327Z,99001.50
2022-07-31T12:08:52.263Z,99000.41
2022-07-31T12:11:56.154Z,98992.56
2022-07-31T12:14:59.453Z,98988.16
2022-07-31T12:18:05.256Z,98989.19
2022-07-31T12:21:10.373Z,98994.59
2022-07-31T12:24:14.649Z,98982.66
2022-07-31T12:27:19.393Z,98983.13
2022-07-31T12:30:29.629Z,98985.88
2022-07-31T12:33:42.112Z,98984.41
2022-07-31T12:36:46.968Z,98975.00
2022-07-31T12:40:00.730Z,98966.44
2022-07-31T12:43:05.122Z,98969.59
2022-07-31T12:46:08.432Z,98965.59
2022-07-31T12:49:11.912Z,98959.41
2022-07-31T12:52:16.963Z,98958.22
2022-07-31T12:55:20.603Z,98954.50
2022-07-31T12:58:23.932Z,98952.47
2022-07-31T13:01:27.345Z,98950.16
2022-07-31T13:04:30.758Z,98943.56
2022-07-31T13:07:38.002Z,98937.41
2022-07-31T13:10:41.435Z,98942.03
2022-07-31T13:13:44.770Z,98943.22
2022-07-31T13:16:48.906Z,98933.03
2022-07-31T13:19:52.344Z,98930.81
2022-07-31T13:22:59.158Z,98938.78
2022-07-31T13:26:02.560Z,98937.09
2022-07-31T13:29:08.732Z,98933.72
2022-07-31T13:32:12.360Z,98922.09
2022-07-31T13:35:23.919Z,98930.19
2022-07-31T13:38:33.302Z,98926.66
2022-07-31T13:41:38.959Z,98922.84
2022-07-31T13:44:45.727Z,98927.00
2022-07-31T13:47:52.906Z,98921.16
2022-07-31T13:50:57.497Z,98928.00
2022-07-31T13:54:02.274Z,98924.06
2022-07-31T13:57:06.623Z,98921.69
2022-07-31T14:00:11.459Z,98924.25
2022-07-31T14:03:15.266Z,98915.81
2022-07-31T14:06:21.848Z,98917.94
2022-07-31T14:09:28.040Z,98925.44
2022-07-31T14:12:31.354Z,98922.91
2022-07-31T14:15:34.721Z,98917.97
2022-07-31T14:18:37.984Z,98920.59
2022-07-31T14:21:41.369Z,98913.94
2022-07-31T14:25:01.423Z,98914.69
2022-07-31T14:28:04.922Z,98918.41
2022-07-31T14:31:08.296Z,98918.53
2022-07-31T14:34:13.861Z,98919.13
2022-07-31T14:37:17.273Z,98921.81
2022-07-31T14:40:22.415Z,98914.09
2022-07-31T14:43:25.846Z,98916.88
2022-07-31T14:46:29.225Z,98913.19
2022-07-31T14:50:09.606Z,98922.97
2022-07-31T14:52:56.847Z,98929.47
2022-07-31T14:56:04.909Z,98924.50
2022-07-31T14:59:17.341Z,98920.19
2022-07-31T15:02:22.813Z,98926.41
2022-07-31T15:06:39.557Z,98926.91
2022-07-31T15:08:49.955Z,98927.88
2022-07-31T15:11:59.056Z,98923.88
2022-07-31T15:15:05.291Z,98924.09
2022-07-31T15:18:40.893Z,98912.09
2022-07-31T15:22:09.812Z,98909.78
2022-07-31T15:25:19.618Z,98907.81
2022-07-31T15:28:24.314Z,98899.13
2022-07-31T15:31:27.685Z,98904.06
2022-07-31T15:34:32.690Z,98903.34
2022-07-31T15:37:37.329Z,98900.56
2022-07-31T15:40:40.697Z,98907.50
2022-07-31T15:43:45.486Z,98895.84
2022-07-31T15:46:48.857Z,98908.28
2022-07-31T15:49:52.226Z,98907.88
2022-07-31T15:52:55.506Z,98910.22
2022-07-31T15:55:58.954Z,98909.63
2022-07-31T15:59:03.808Z,98903.91
2022-07-31T16:02:07.139Z,98903.56
2022-07-31T16:05:20.046Z,98904.44
2022-07-31T16:08:35.851Z,98901.91
2022-07-31T16:12:02.935Z,98898.13
2022-07-31T16:15:08.002Z,98899.66
2022-07-31T16:18:18.475Z,98905.97
2022-07-31T16:21:21.973Z,98906.72
2022-07-31T16:24:25.345Z,98907.59
2022-07-31T16:27:28.722Z,98912.97
2022-07-31T16:30:33.634Z,98916.69
2022-07-31T16:33:36.999Z,98912.88
2022-07-31T16:36:41.338Z,98915.56
2022-07-31T16:39:45.578Z,98923.31
2022-07-31T16:42:50.655Z,98921.28
2022-07-31T16:45:56.851Z,98922.06
2022-07-31T16:49:00.149Z,98931.84
2022-07-31T16:52:09.857Z,98928.63
2022-07-31T16:55:13.151Z,98938.94
2022-07-31T16:58:16.494Z,98944.59
2022-07-31T17:01:58.064Z,98946.47
2022-07-31T17:04:44.987Z,98955.84
2022-07-31T17:07:48.342Z,98957.13
2022-07-31T17:10:54.593Z,98959.16
2022-07-31T17:13:58.200Z,98956.69
2022-07-31T17:17:03.284Z,98968.06
2022-07-31T17:20:08.013Z,98967.09
2022-07-31T17:23:11.430Z,98977.91
2022-07-31T17:26:21.444Z,98969.63
2022-07-31T17:29:25.548Z,98977.56
2022-07-31T17:32:32.253Z,98980.38
2022-07-31T17:35:35.515Z,98990.44
2022-07-31T17:38:38.895Z,98995.50
2022-07-31T17:41:42.227Z,99008.66
2022-07-31T17:44:46.551Z,99009.63
2022-07-31T17:48:02.552Z,99024.31
2022-07-31T17:51:07.290Z,99025.34
2022-07-31T17:54:10.628Z,99035.31
2022-07-31T17:57:13.950Z,99037.25
2022-07-31T18:00:18.034Z,99052.50
2022-07-31T18:03:22.753Z,99056.19
2022-07-31T18:06:26.228Z,99069.03
2022-07-31T18:09:30.197Z,99060.97
2022-07-31T18:12:56.642Z,99073.28
2022-07-31T18:16:00.479Z,99078.97
2022-07-31T18:19:05.357Z,99083.66
2022-07-31T18:22:08.744Z,99100.34
2022-07-31T18:25:12.431Z,99102.47
2022-07-31T18:28:15.693Z,99100.34
2022-07-31T18:31:34.279Z,99110.56
2022-07-31T18:34:40.566Z,99113.28
2022-07-31T18:37:43.922Z,99116.25
2022-07-31T18:40:47.409Z,99114.91
2022-07-31T18:43:50.841Z,99132.91
2022-07-31T18:46:54.266Z,99123.53
2022-07-31T18:51:03.192Z,99137.56
2022-07-31T18:53:22.428Z,99144.97
2022-07-31T18:56:26.368Z,99145.00
2022-07-31T18:59:29.670Z,99145.25
2022-07-31T19:02:32.948Z,99154.66
2022-07-31T19:05:37.731Z,99151.19
2022-07-31T19:08:41.034Z,99149.31
2022-07-31T19:11:51.822Z,99148.53
2022-07-31T19:15:10.816Z,99149.81
2022-07-31T19:18:14.254Z,99153.59
2022-07-31T19:21:42.239Z,99150.09
2022-07-31T19:24:46.303Z,99150.34
2022-07-31T19:27:50.428Z,99155.75
2022-07-31T19:30:53.952Z,99154.41
2022-07-31T19:33:57.264Z,99153.88
2022-07-31T19:37:02.357Z,99161.13
2022-07-31T19:40:08.722Z,99157.94
2022-07-31T19:43:12.804Z,99163.84
2022-07-31T19:46:17.853Z,99166.50
2022-07-31T19:49:21.362Z,99164.06
2022-07-31T19:52:26.239Z,99164.59
2022-07-31T19:55:29.622Z,99155.25
2022-07-31T19:58:41.439Z,99158.13
2022-07-31T20:01:44.856Z,99155.22
2022-07-31T20:04:48.213Z,99149.91
2022-07-31T20:07:53.004Z,99164.13
2022-07-31T20:10:57.742Z,99168.09
2022-07-31T20:14:01.248Z,99170.25
2022-07-31T20:17:04.715Z,99166.53
2022-07-31T20:20:15.572Z,99163.84
2022-07-31T20:23:20.901Z,99176.19
2022-07-31T20:26:25.156Z,99168.66
2022-07-31T20:29:28.556Z,99171.06
2022-07-31T20:32:32.073Z,99160.28
2022-07-31T20:35:48.412Z,99164.31
2022-07-31T20:38:54.694Z,99169.69
2022-07-31T20:41:58.153Z,99167.56
2022-07-31T20:45:01.643Z,99157.84
2022-07-31T20:48:05.332Z,99158.69
2022-07-31T20:51:13.234Z,99161.59
2022-07-31T20:54:17.893Z,99159.50
2022-07-31T20:57:37.777Z,99160.81
2022-07-31T21:00:41.111Z,99150.91
2022-07-31T21:03:44.494Z,99157.31
2022-07-31T21:06:47.920Z,99169.09
2022-07-31T21:09:52.613Z,99166.72
2022-07-31T21:12:56.220Z,99164.81
2022-07-31T21:15:59.878Z,99176.16
2022-07-31T21:19:03.157Z,99168.91
2022-07-31T21:22:06.759Z,99171.41
2022-07-31T21:25:12.673Z,99178.28
2022-07-31T21:28:16.482Z,99179.63
2022-07-31T21:31:20.380Z,99182.44
2022-07-31T21:34:23.994Z,99189.88
2022-07-31T21:37:27.937Z,99184.84
2022-07-31T21:40:45.392Z,99189.06
2022-07-31T21:43:59.178Z,99186.66
2022-07-31T21:47:04.009Z,99186.44
2022-07-31T21:50:10.082Z,99191.84
2022-07-31T21:53:15.590Z,99186.25
2022-07-31T21:56:20.407Z,99197.84
2022-07-31T21:59:23.994Z,99193.69
2022-07-31T22:02:27.285Z,99198.66
2022-07-31T22:05:48.203Z,99197.06
2022-07-31T22:08:51.473Z,99188.50
2022-07-31T22:12:00.869Z,99197.94
2022-07-31T22:15:06.024Z,99199.75
2022-07-31T22:18:10.141Z,99195.16
2022-07-31T22:21:14.184Z,99196.72
2022-07-31T22:24:18.719Z,99196.75
2022-07-31T22:27:42.342Z,99205.91
2022-07-31T22:30:46.360Z,99203.25
2022-07-31T22:33:50.728Z,99196.84
2022-07-31T22:36:54.497Z,99195.91
2022-07-31T22:39:59.713Z,99192.84
2022-07-31T22:43:04.726Z,99198.22
2022-07-31T22:46:28.455Z,99194.50
2022-07-31T22:49:36.709Z,99199.19
2022-07-31T22:52:40.081Z,99192.09
2022-07-31T22:55:43.499Z,99204.25
2022-07-31T22:58:48.236Z,99200.34
2022-07-31T23:01:51.576Z,99203.53
2022-07-31T23:04:55.124Z,99204.09
2022-07-31T23:07:58.494Z,99204.09
2022-07-31T23:11:01.881Z,99205.75
2022-07-31T23:14:06.588Z,99205.59
2022-07-31T23:17:09.886Z,99203.03
2022-07-31T23:20:26.326Z,99195.13
2022-07-31T23:23:29.706Z,99198.56
2022-07-31T23:26:33.075Z,99202.66
2022-07-31T23:29:41.718Z,99203.84
2022-07-31T23:32:45.124Z,99196.34
2022-07-31T23:35:48.502Z,99198.28
2022-07-31T23:38:52.239Z,99198.00
2022-07-31T23:42:12.953Z,99196.03
2022-07-31T23:45:20.659Z,99202.69
2022-07-31T23:48:29.227Z,99200.63
2022-07-31T23:51:34.658Z,99199.25
2022-07-31T23:54:38.286Z,99200.38
2022-07-31T23:57:41.720Z,99199.19
